sensor_id;sensor_type;location;lat;lon;timestamp;pressure;altitude;pressure_sealevel;temperature;humidity
60345;BME280;46188;52.324;8.032;2023-02-12T00:01:08;102554.97;;;7.57;100.00
60345;BME280;46188;52.324;8.032;2023-02-12T00:03:35;102558.41;;;7.56;100.00
60345;BME280;46188;52.324;8.032;2023-02-12T00:06:01;102563.84;;;7.59;100.00
60345;BME280;46188;52.324;8.032;2023-02-12T00:08:26;102563.84;;;7.59;100.00
60345;BME280;46188;52.324;8.032;2023-02-12T00:10:52;102563.22;;;7.63;100.00
60345;BME280;46188;52.324;8.032;2023-02-12T00:13:17;102562.94;;;7.58;100.00
60345;BME280;46188;52.324;8.032;2023-02-12T00:15:43;102565.47;;;7.57;100.00
60345;BME280;46188;52.324;8.032;2023-02-12T00:18:08;102566.53;;;7.61;100.00
60345;BME280;46188;52.324;8.032;2023-02-12T00:20:36;102568.09;;;7.57;100.00
60345;BME280;46188;52.324;8.032;2023-02-12T00:23:03;102564.03;;;7.47;100.00
60345;BME280;46188;52.324;8.032;2023-02-12T00:25:28;102576.97;;;7.44;100.00
60345;BME280;46188;52.324;8.032;2023-02-12T00:27:54;102578.91;;;7.47;100.00
60345;BME280;46188;52.324;8.032;2023-02-12T00:30:19;102569.47;;;7.50;100.00
60345;BME280;46188;52.324;8.032;2023-02-12T00:32:45;102572.91;;;7.49;100.00
60345;BME280;46188;52.324;8.032;2023-02-12T00:35:11;102571.03;;;7.47;100.00
60345;BME280;46188;52.324;8.032;2023-02-12T00:37:37;102578.16;;;7.49;100.00
60345;BME280;46188;52.324;8.032;2023-02-12T00:40:02;102571.28;;;7.51;100.00
60345;BME280;46188;52.324;8.032;2023-02-12T00:42:28;102565.97;;;7.50;100.00
60345;BME280;46188;52.324;8.032;2023-02-12T00:44:53;102577.06;;;7.46;100.00
60345;BME280;46188;52.324;8.032;2023-02-12T00:47:19;102569.94;;;7.43;100.00
60345;BME280;46188;52.324;8.032;2023-02-12T00:49:44;102571.31;;;7.36;100.00
60345;BME280;46188;52.324;8.032;2023-02-12T00:52:10;102583.50;;;7.36;100.00
60345;BME280;46188;52.324;8.032;2023-02-12T00:54:35;102571.47;;;7.39;100.00
60345;BME280;46188;52.324;8.032;2023-02-12T00:57:00;102577.63;;;7.40;100.00
60345;BME280;46188;52.324;8.032;2023-02-12T00:59:26;102581.16;;;7.41;100.00
60345;BME280;46188;52.324;8.032;2023-02-12T01:01:53;102580.78;;;7.34;100.00
60345;BME280;46188;52.324;8.032;2023-02-12T01:04:19;102582.44;;;7.32;100.00
60345;BME280;46188;52.324;8.032;2023-02-12T01:06:45;102584.44;;;7.36;100.00
60345;BME280;46188;52.324;8.032;2023-02-12T01:09:10;102590.66;;;7.38;100.00
60345;BME280;46188;52.324;8.032;2023-02-12T01:11:36;102591.66;;;7.41;100.00
60345;BME280;46188;52.324;8.032;2023-02-12T01:14:03;102589.03;;;7.41;100.00
60345;BME280;46188;52.324;8.032;2023-02-12T01:16:28;102593.13;;;7.35;100.00
60345;BME280;46188;52.324;8.032;2023-02-12T01:18:56;102590.31;;;7.32;100.00
60345;BME280;46188;52.324;8.032;2023-02-12T01:21:30;102601.16;;;7.24;100.00
60345;BME280;46188;52.324;8.032;2023-02-12T01:23:56;102595.75;;;7.20;100.00
60345;BME280;46188;52.324;8.032;2023-02-12T01:26:22;102585.44;;;7.24;100.00
60345;BME280;46188;52.324;8.032;2023-02-12T01:28:50;102591.19;;;7.18;100.00
60345;BME280;46188;52.324;8.032;2023-02-12T01:31:19;102601.44;;;7.13;100.00
60345;BME280;46188;52.324;8.032;2023-02-12T01:33:49;102590.22;;;7.16;100.00
60345;BME280;46188;52.324;8.032;2023-02-12T01:36:16;102598.97;;;7.16;100.00
60345;BME280;46188;52.324;8.032;2023-02-12T01:38:41;102599.34;;;7.23;100.00
60345;BME280;46188;52.324;8.032;2023-02-12T01:41:28;102598.47;;;7.22;100.00
60345;BME280;46188;52.324;8.032;2023-02-12T01:46:34;102598.47;;;7.22;100.00
60345;BME280;46188;52.324;8.032;2023-02-12T01:48:59;102594.09;;;7.23;100.00
60345;BME280;46188;52.324;8.032;2023-02-12T01:51:26;102599.16;;;7.19;100.00
60345;BME280;46188;52.324;8.032;2023-02-12T01:53:53;102601.69;;;7.18;100.00
60345;BME280;46188;52.324;8.032;2023-02-12T01:56:20;102597.47;;;7.20;100.00
60345;BME280;46188;52.324;8.032;2023-02-12T01:58:50;102602.63;;;7.18;100.00
60345;BME280;46188;52.324;8.032;2023-02-12T02:01:22;102598.09;;;7.16;100.00
60345;BME280;46188;52.324;8.032;2023-02-12T02:03:51;102596.91;;;7.11;100.00
60345;BME280;46188;52.324;8.032;2023-02-12T02:06:23;102596.63;;;7.06;100.00
60345;BME280;46188;52.324;8.032;2023-02-12T02:08:51;102604.78;;;7.11;100.00
60345;BME280;46188;52.324;8.032;2023-02-12T02:11:17;102597.72;;;7.10;100.00
60345;BME280;46188;52.324;8.032;2023-02-12T02:14:01;102598.34;;;7.06;100.00
60345;BME280;46188;52.324;8.032;2023-02-12T02:17:03;102592.38;;;7.08;100.00
60345;BME280;46188;52.324;8.032;2023-02-12T02:22:31;102586.41;;;7.11;100.00
60345;BME280;46188;52.324;8.032;2023-02-12T02:27:41;102581.81;;;7.07;100.00
60345;BME280;46188;52.324;8.032;2023-02-12T02:35:54;102571.06;;;7.02;100.00
60345;BME280;46188;52.324;8.032;2023-02-12T02:38:35;102576.41;;;7.04;100.00
60345;BME280;46188;52.324;8.032;2023-02-12T02:41:08;102583.25;;;7.01;100.00
60345;BME280;46188;52.324;8.032;2023-02-12T02:43:58;102572.03;;;7.04;100.00
60345;BME280;46188;52.324;8.032;2023-02-12T02:46:36;102569.88;;;6.97;100.00
60345;BME280;46188;52.324;8.032;2023-02-12T02:49:07;102563.72;;;6.96;100.00
60345;BME280;46188;52.324;8.032;2023-02-12T02:51:48;102564.72;;;6.98;100.00
60345;BME280;46188;52.324;8.032;2023-02-12T02:54:21;102568.75;;;6.93;100.00
60345;BME280;46188;52.324;8.032;2023-02-12T02:56:49;102566.97;;;6.92;100.00
60345;BME280;46188;52.324;8.032;2023-02-12T02:59:27;102570.22;;;6.88;100.00
60345;BME280;46188;52.324;8.032;2023-02-12T03:02:13;102569.88;;;6.82;100.00
60345;BME280;46188;52.324;8.032;2023-02-12T03:04:45;102572.84;;;6.88;100.00
60345;BME280;46188;52.324;8.032;2023-02-12T03:07:19;102573.84;;;6.90;100.00
60345;BME280;46188;52.324;8.032;2023-02-12T03:10:00;102560.66;;;6.89;100.00
60345;BME280;46188;52.324;8.032;2023-02-12T03:15:04;102562.81;;;6.96;100.00
60345;BME280;46188;52.324;8.032;2023-02-12T03:17:38;102553.59;;;6.88;100.00
60345;BME280;46188;52.324;8.032;2023-02-12T03:20:11;102557.94;;;6.87;100.00
60345;BME280;46188;52.324;8.032;2023-02-12T03:22:43;102558.75;;;6.86;100.00
60345;BME280;46188;52.324;8.032;2023-02-12T03:25:14;102562.09;;;6.83;100.00
60345;BME280;46188;52.324;8.032;2023-02-12T03:27:48;102554.84;;;6.79;100.00
60345;BME280;46188;52.324;8.032;2023-02-12T03:30:16;102555.56;;;6.77;100.00
60345;BME280;46188;52.324;8.032;2023-02-12T03:32:53;102564.06;;;6.73;100.00
60345;BME280;46188;52.324;8.032;2023-02-12T03:35:37;102563.16;;;6.72;100.00
60345;BME280;46188;52.324;8.032;2023-02-12T03:38:45;102563.88;;;6.70;100.00
60345;BME280;46188;52.324;8.032;2023-02-12T03:41:24;102564.72;;;6.69;100.00
60345;BME280;46188;52.324;8.032;2023-02-12T03:47:00;102557.63;;;6.68;100.00
60345;BME280;46188;52.324;8.032;2023-02-12T03:49:37;102558.81;;;6.73;100.00
60345;BME280;46188;52.324;8.032;2023-02-12T03:52:07;102570.94;;;6.71;100.00
60345;BME280;46188;52.324;8.032;2023-02-12T03:54:32;102570.19;;;6.73;100.00
60345;BME280;46188;52.324;8.032;2023-02-12T03:57:08;102573.06;;;6.63;100.00
60345;BME280;46188;52.324;8.032;2023-02-12T03:59:37;102571.25;;;6.62;100.00
60345;BME280;46188;52.324;8.032;2023-02-12T04:02:03;102575.09;;;6.67;100.00
60345;BME280;46188;52.324;8.032;2023-02-12T04:04:29;102572.72;;;6.72;100.00
60345;BME280;46188;52.324;8.032;2023-02-12T04:06:56;102571.28;;;6.77;100.00
60345;BME280;46188;52.324;8.032;2023-02-12T04:09:23;102567.16;;;6.80;100.00
60345;BME280;46188;52.324;8.032;2023-02-12T04:12:08;102572.41;;;6.80;100.00
60345;BME280;46188;52.324;8.032;2023-02-12T04:14:52;102578.34;;;6.78;100.00
60345;BME280;46188;52.324;8.032;2023-02-12T04:20:05;102582.16;;;6.83;100.00
60345;BME280;46188;52.324;8.032;2023-02-12T04:28:41;102596.34;;;6.87;100.00
60345;BME280;46188;52.324;8.032;2023-02-12T04:31:29;102593.63;;;6.85;100.00
60345;BME280;46188;52.324;8.032;2023-02-12T04:34:02;102607.09;;;6.91;100.00
60345;BME280;46188;52.324;8.032;2023-02-12T04:36:53;102607.94;;;6.90;100.00
60345;BME280;46188;52.324;8.032;2023-02-12T04:39:24;102607.00;;;6.90;100.00
60345;BME280;46188;52.324;8.032;2023-02-12T04:41:51;102619.41;;;6.92;100.00
60345;BME280;46188;52.324;8.032;2023-02-12T04:44:22;102621.94;;;6.91;100.00
60345;BME280;46188;52.324;8.032;2023-02-12T04:46:49;102614.88;;;6.90;100.00
60345;BME280;46188;52.324;8.032;2023-02-12T04:49:16;102608.66;;;6.88;100.00
60345;BME280;46188;52.324;8.032;2023-02-12T04:51:43;102613.19;;;6.90;100.00
60345;BME280;46188;52.324;8.032;2023-02-12T04:54:09;102609.13;;;6.95;100.00
60345;BME280;46188;52.324;8.032;2023-02-12T04:56:34;102607.59;;;6.99;100.00
60345;BME280;46188;52.324;8.032;2023-02-12T04:59:00;102610.50;;;7.04;100.00
60345;BME280;46188;52.324;8.032;2023-02-12T05:01:25;102608.47;;;6.99;100.00
60345;BME280;46188;52.324;8.032;2023-02-12T05:03:51;102612.81;;;6.99;100.00
60345;BME280;46188;52.324;8.032;2023-02-12T05:06:17;102617.41;;;6.88;100.00
60345;BME280;46188;52.324;8.032;2023-02-12T05:08:42;102615.81;;;6.90;100.00
60345;BME280;46188;52.324;8.032;2023-02-12T05:11:08;102610.72;;;6.93;100.00
60345;BME280;46188;52.324;8.032;2023-02-12T05:13:34;102615.88;;;6.92;100.00
60345;BME280;46188;52.324;8.032;2023-02-12T05:16:04;102621.22;;;6.93;100.00
60345;BME280;46188;52.324;8.032;2023-02-12T05:18:31;102611.56;;;6.92;100.00
60345;BME280;46188;52.324;8.032;2023-02-12T05:20:57;102619.22;;;6.89;100.00
60345;BME280;46188;52.324;8.032;2023-02-12T05:23:28;102620.78;;;6.86;100.00
60345;BME280;46188;52.324;8.032;2023-02-12T05:25:56;102617.41;;;6.88;100.00
60345;BME280;46188;52.324;8.032;2023-02-12T05:28:22;102615.88;;;6.92;100.00
60345;BME280;46188;52.324;8.032;2023-02-12T05:30:47;102611.47;;;6.91;100.00
60345;BME280;46188;52.324;8.032;2023-02-12T05:33:13;102619.84;;;6.85;100.00
60345;BME280;46188;52.324;8.032;2023-02-12T05:35:38;102623.69;;;6.90;100.00
60345;BME280;46188;52.324;8.032;2023-02-12T05:38:04;102621.31;;;6.95;100.00
60345;BME280;46188;52.324;8.032;2023-02-12T05:40:29;102624.28;;;6.86;100.00
60345;BME280;46188;52.324;8.032;2023-02-12T05:42:54;102619.59;;;6.80;100.00
60345;BME280;46188;52.324;8.032;2023-02-12T05:45:20;102623.91;;;6.80;100.00
60345;BME280;46188;52.324;8.032;2023-02-12T05:47:45;102617.75;;;6.79;100.00
60345;BME280;46188;52.324;8.032;2023-02-12T05:50:11;102624.63;;;6.77;100.00
60345;BME280;46188;52.324;8.032;2023-02-12T05:52:36;102623.09;;;6.81;100.00
60345;BME280;46188;52.324;8.032;2023-02-12T05:55:02;102622.41;;;6.83;100.00
60345;BME280;46188;52.324;8.032;2023-02-12T05:57:27;102620.84;;;6.87;100.00
60345;BME280;46188;52.324;8.032;2023-02-12T05:59:53;102619.22;;;6.89;100.00
60345;BME280;46188;52.324;8.032;2023-02-12T06:02:18;102619.78;;;6.83;100.00
60345;BME280;46188;52.324;8.032;2023-02-12T06:04:44;102619.13;;;6.88;100.00
60345;BME280;46188;52.324;8.032;2023-02-12T06:07:09;102622.56;;;6.87;100.00
60345;BME280;46188;52.324;8.032;2023-02-12T06:09:36;102614.94;;;6.76;100.00
60345;BME280;46188;52.324;8.032;2023-02-12T06:12:01;102626.16;;;6.74;100.00
60345;BME280;46188;52.324;8.032;2023-02-12T06:14:27;102618.81;;;6.68;100.00
60345;BME280;46188;52.324;8.032;2023-02-12T06:16:53;102620.34;;;6.64;100.00
60345;BME280;46188;52.324;8.032;2023-02-12T06:19:18;102627.75;;;6.72;100.00
60345;BME280;46188;52.324;8.032;2023-02-12T06:21:44;102625.16;;;6.72;100.00
60345;BME280;46188;52.324;8.032;2023-02-12T06:24:13;102624.25;;;6.71;100.00
60345;BME280;46188;52.324;8.032;2023-02-12T06:26:39;102620.09;;;6.75;100.00
60345;BME280;46188;52.324;8.032;2023-02-12T06:29:05;102630.69;;;6.76;100.00
60345;BME280;46188;52.324;8.032;2023-02-12T06:31:33;102631.41;;;6.74;100.00
60345;BME280;46188;52.324;8.032;2023-02-12T06:34:04;102635.63;;;6.72;100.00
60345;BME280;46188;52.324;8.032;2023-02-12T06:36:31;102638.25;;;6.72;100.00
60345;BME280;46188;52.324;8.032;2023-02-12T06:38:56;102636.56;;;6.72;100.00
60345;BME280;46188;52.324;8.032;2023-02-12T06:41:22;102635.81;;;6.75;100.00
60345;BME280;46188;52.324;8.032;2023-02-12T06:43:48;102634.19;;;6.77;100.00
60345;BME280;46188;52.324;8.032;2023-02-12T06:46:15;102643.88;;;6.78;100.00
60345;BME280;46188;52.324;8.032;2023-02-12T06:48:40;102649.13;;;6.78;100.00
60345;BME280;46188;52.324;8.032;2023-02-12T06:51:15;102653.19;;;6.73;100.00
60345;BME280;46188;52.324;8.032;2023-02-12T06:53:42;102649.13;;;6.78;100.00
60345;BME280;46188;52.324;8.032;2023-02-12T06:56:09;102653.47;;;6.77;100.00
60345;BME280;46188;52.324;8.032;2023-02-12T06:58:42;102659.41;;;6.75;100.00
60345;BME280;46188;52.324;8.032;2023-02-12T07:01:10;102661.84;;;6.72;100.00
60345;BME280;46188;52.324;8.032;2023-02-12T07:03:39;102659.22;;;6.72;100.00
60345;BME280;46188;52.324;8.032;2023-02-12T07:06:05;102662.22;;;6.78;100.00
60345;BME280;46188;52.324;8.032;2023-02-12T07:08:30;102659.13;;;6.70;100.00
60345;BME280;46188;52.324;8.032;2023-02-12T07:10:56;102655.91;;;6.74;100.00
60345;BME280;46188;52.324;8.032;2023-02-12T07:13:21;102661.03;;;6.73;100.00
60345;BME280;46188;52.324;8.032;2023-02-12T07:15:46;102661.69;;;6.69;100.00
60345;BME280;46188;52.324;8.032;2023-02-12T07:18:12;102672.44;;;6.73;100.00
60345;BME280;46188;52.324;8.032;2023-02-12T07:20:37;102668.00;;;6.72;100.00
60345;BME280;46188;52.324;8.032;2023-02-12T07:23:02;102673.97;;;6.70;100.00
60345;BME280;46188;52.324;8.032;2023-02-12T07:25:28;102676.38;;;6.67;100.00
60345;BME280;46188;52.324;8.032;2023-02-12T07:27:53;102677.47;;;6.70;100.00
60345;BME280;46188;52.324;8.032;2023-02-12T07:30:19;102673.44;;;6.75;100.00
60345;BME280;46188;52.324;8.032;2023-02-12T07:32:44;102677.16;;;6.79;100.00
60345;BME280;46188;52.324;8.032;2023-02-12T07:35:10;102681.56;;;6.80;100.00
60345;BME280;46188;52.324;8.032;2023-02-12T07:37:35;102674.00;;;6.84;100.00
60345;BME280;46188;52.324;8.032;2023-02-12T07:40:00;102680.97;;;6.84;100.00
60345;BME280;46188;52.324;8.032;2023-02-12T07:42:26;102687.50;;;6.91;100.00
60345;BME280;46188;52.324;8.032;2023-02-12T07:44:51;102686.91;;;6.81;100.00
60345;BME280;46188;52.324;8.032;2023-02-12T07:47:17;102689.81;;;6.86;100.00
60345;BME280;46188;52.324;8.032;2023-02-12T07:49:42;102693.53;;;6.90;100.00
60345;BME280;46188;52.324;8.032;2023-02-12T07:52:08;102700.03;;;6.81;100.00
60345;BME280;46188;52.324;8.032;2023-02-12T07:54:33;102701.06;;;6.83;100.00
60345;BME280;46188;52.324;8.032;2023-02-12T07:56:59;102698.78;;;6.90;100.00
60345;BME280;46188;52.324;8.032;2023-02-12T07:59:25;102708.19;;;6.86;100.00
60345;BME280;46188;52.324;8.032;2023-02-12T08:01:52;102704.97;;;6.90;100.00
60345;BME280;46188;52.324;8.032;2023-02-12T08:04:22;102698.19;;;6.94;100.00
60345;BME280;46188;52.324;8.032;2023-02-12T08:06:50;102706.75;;;6.91;100.00
60345;BME280;46188;52.324;8.032;2023-02-12T08:09:18;102707.97;;;6.83;100.00
60345;BME280;46188;52.324;8.032;2023-02-12T08:11:45;102706.09;;;6.80;100.00
60345;BME280;46188;52.324;8.032;2023-02-12T08:14:12;102715.16;;;6.86;100.00
60345;BME280;46188;52.324;8.032;2023-02-12T08:16:40;102713.63;;;6.89;100.00
60345;BME280;46188;52.324;8.032;2023-02-12T08:19:06;102713.53;;;6.88;100.00
60345;BME280;46188;52.324;8.032;2023-02-12T08:21:31;102721.59;;;6.91;100.00
60345;BME280;46188;52.324;8.032;2023-02-12T08:23:57;102722.28;;;6.88;100.00
60345;BME280;46188;52.324;8.032;2023-02-12T08:28:51;102725.84;;;6.89;100.00
60345;BME280;46188;52.324;8.032;2023-02-12T08:31:22;102728.63;;;6.92;100.00
60345;BME280;46188;52.324;8.032;2023-02-12T08:33:49;102729.34;;;6.89;100.00
60345;BME280;46188;52.324;8.032;2023-02-12T08:36:18;102731.44;;;6.95;100.00
60345;BME280;46188;52.324;8.032;2023-02-12T08:38:45;102735.97;;;6.97;100.00
60345;BME280;46188;52.324;8.032;2023-02-12T08:41:22;102742.56;;;6.91;100.00
60345;BME280;46188;52.324;8.032;2023-02-12T08:43:49;102740.22;;;6.95;100.00
60345;BME280;46188;52.324;8.032;2023-02-12T08:46:21;102747.47;;;6.99;100.00
60345;BME280;46188;52.324;8.032;2023-02-12T08:48:51;102743.84;;;6.97;100.00
60345;BME280;46188;52.324;8.032;2023-02-12T08:51:19;102741.22;;;6.97;100.00
60345;BME280;46188;52.324;8.032;2023-02-12T08:53:47;102745.66;;;6.98;100.00
60345;BME280;46188;52.324;8.032;2023-02-12T08:56:14;102744.44;;;6.93;100.00
60345;BME280;46188;52.324;8.032;2023-02-12T08:58:41;102742.84;;;6.95;100.00
60345;BME280;46188;52.324;8.032;2023-02-12T09:01:21;102752.50;;;6.96;100.00
60345;BME280;46188;52.324;8.032;2023-02-12T09:03:47;102750.28;;;7.02;100.00
60345;BME280;46188;52.324;8.032;2023-02-12T09:06:14;102745.53;;;7.10;100.00
60345;BME280;46188;52.324;8.032;2023-02-12T09:08:41;102761.81;;;7.19;100.00
60345;BME280;46188;52.324;8.032;2023-02-12T09:11:12;102756.69;;;7.36;100.00
60345;BME280;46188;52.324;8.032;2023-02-12T09:13:38;102758.69;;;7.40;100.00
60345;BME280;46188;52.324;8.032;2023-02-12T09:16:05;102760.97;;;7.49;100.00
60345;BME280;46188;52.324;8.032;2023-02-12T09:18:31;102765.22;;;7.47;100.00
60345;BME280;46188;52.324;8.032;2023-02-12T09:21:02;102767.84;;;7.47;100.00
60345;BME280;46188;52.324;8.032;2023-02-12T09:23:27;102762.59;;;7.47;100.00
60345;BME280;46188;52.324;8.032;2023-02-12T09:25:53;102761.84;;;7.49;100.00
60345;BME280;46188;52.324;8.032;2023-02-12T09:28:18;102762.25;;;7.55;100.00
60345;BME280;46188;52.324;8.032;2023-02-12T09:30:44;102770.91;;;7.54;100.00
60345;BME280;46188;52.324;8.032;2023-02-12T09:33:09;102765.25;;;7.62;100.00
60345;BME280;46188;52.324;8.032;2023-02-12T09:35:36;102772.03;;;7.58;100.00
60345;BME280;46188;52.324;8.032;2023-02-12T09:38:03;102772.09;;;7.60;100.00
60345;BME280;46188;52.324;8.032;2023-02-12T09:43:36;102771.66;;;7.67;100.00
60345;BME280;46188;52.324;8.032;2023-02-12T09:46:20;102776.72;;;7.64;100.00
60345;BME280;46188;52.324;8.032;2023-02-12T09:49:08;102780.06;;;7.61;100.00
60345;BME280;46188;52.324;8.032;2023-02-12T09:51:35;102784.31;;;7.59;100.00
60345;BME280;46188;52.324;8.032;2023-02-12T09:54:06;102783.72;;;7.63;100.00
60345;BME280;46188;52.324;8.032;2023-02-12T09:56:37;102792.28;;;7.61;100.00
60345;BME280;46188;52.324;8.032;2023-02-12T09:59:05;102792.47;;;7.49;100.00
60345;BME280;46188;52.324;8.032;2023-02-12T10:01:32;102797.56;;;7.32;100.00
60345;BME280;46188;52.324;8.032;2023-02-12T10:03:57;102795.16;;;7.35;100.00
60345;BME280;46188;52.324;8.032;2023-02-12T10:06:25;102791.00;;;7.39;100.00
60345;BME280;46188;52.324;8.032;2023-02-12T10:11:44;102796.63;;;7.45;100.00
60345;BME280;46188;52.324;8.032;2023-02-12T10:14:37;102800.25;;;7.47;100.00
60345;BME280;46188;52.324;8.032;2023-02-12T10:22:52;102799.13;;;7.29;100.00
60345;BME280;46188;52.324;8.032;2023-02-12T10:25:29;102795.75;;;7.31;100.00
60345;BME280;46188;52.324;8.032;2023-02-12T10:28:00;102797.88;;;7.37;100.00
60345;BME280;46188;52.324;8.032;2023-02-12T10:33:32;102792.47;;;7.49;100.00
60345;BME280;46188;52.324;8.032;2023-02-12T10:38:38;102802.41;;;7.54;100.00
60345;BME280;46188;52.324;8.032;2023-02-12T10:41:09;102807.41;;;7.50;100.00
60345;BME280;46188;52.324;8.032;2023-02-12T10:43:38;102798.78;;;7.52;100.00
60345;BME280;46188;52.324;8.032;2023-02-12T10:46:03;102788.50;;;7.55;100.00
60345;BME280;46188;52.324;8.032;2023-02-12T10:48:34;102796.19;;;7.67;100.00
60345;BME280;46188;52.324;8.032;2023-02-12T10:53:38;102798.13;;;7.70;100.00
60345;BME280;46188;52.324;8.032;2023-02-12T10:58:57;102799.56;;;7.65;100.00
60345;BME280;46188;52.324;8.032;2023-02-12T11:01:29;102800.25;;;7.62;100.00
60345;BME280;46188;52.324;8.032;2023-02-12T11:03:59;102802.88;;;7.62;100.00
60345;BME280;46188;52.324;8.032;2023-02-12T11:06:27;102803.28;;;7.68;100.00
60345;BME280;46188;52.324;8.032;2023-02-12T11:08:54;102802.00;;;7.76;100.00
60345;BME280;46188;52.324;8.032;2023-02-12T11:11:28;102797.75;;;7.79;100.00
60345;BME280;46188;52.324;8.032;2023-02-12T11:14:16;102804.00;;;7.81;100.00
60345;BME280;46188;52.324;8.032;2023-02-12T11:16:50;102798.47;;;7.91;100.00
60345;BME280;46188;52.324;8.032;2023-02-12T11:19:23;102788.97;;;7.93;100.00
60345;BME280;46188;52.324;8.032;2023-02-12T11:21:49;102793.59;;;7.97;100.00
60345;BME280;46188;52.324;8.032;2023-02-12T11:24:28;102790.25;;;8.00;100.00
60345;BME280;46188;52.324;8.032;2023-02-12T11:29:40;102784.16;;;7.86;100.00
60345;BME280;46188;52.324;8.032;2023-02-12T11:32:09;102788.31;;;7.82;100.00
60345;BME280;46188;52.324;8.032;2023-02-12T11:34:39;102784.34;;;7.74;100.00
60345;BME280;46188;52.324;8.032;2023-02-12T11:37:13;102780.25;;;7.79;100.00
60345;BME280;46188;52.324;8.032;2023-02-12T11:39:45;102790.69;;;7.92;100.00
60345;BME280;46188;52.324;8.032;2023-02-12T11:42:19;102777.19;;;8.01;100.00
60345;BME280;46188;52.324;8.032;2023-02-12T11:44:56;102771.59;;;7.95;100.00
60345;BME280;46188;52.324;8.032;2023-02-12T11:47:25;102769.84;;;7.95;100.00
60345;BME280;46188;52.324;8.032;2023-02-12T11:52:32;102766.41;;;8.11;100.00
60345;BME280;46188;52.324;8.032;2023-02-12T11:55:02;102768.66;;;8.20;100.00
60345;BME280;46188;52.324;8.032;2023-02-12T11:57:44;102761.22;;;8.28;100.00
60345;BME280;46188;52.324;8.032;2023-02-12T12:00:16;102769.09;;;8.28;100.00
60345;BME280;46188;52.324;8.032;2023-02-12T12:03:24;102755.78;;;8.25;100.00
60345;BME280;46188;52.324;8.032;2023-02-12T12:06:06;102756.25;;;8.18;100.00
60345;BME280;46188;52.324;8.032;2023-02-12T12:08:47;102752.25;;;8.24;100.00
60345;BME280;46188;52.324;8.032;2023-02-12T12:11:39;102750.63;;;8.26;100.00
60345;BME280;46188;52.324;8.032;2023-02-12T12:14:22;102750.53;;;8.25;100.00
60345;BME280;46188;52.324;8.032;2023-02-12T12:17:10;102747.34;;;8.30;100.00
60345;BME280;46188;52.324;8.032;2023-02-12T12:20:22;102749.69;;;8.41;100.00
60345;BME280;46188;52.324;8.032;2023-02-12T12:25:36;102735.88;;;8.60;100.00
60345;BME280;46188;52.324;8.032;2023-02-12T12:28:50;102732.66;;;8.65;100.00
60345;BME280;46188;52.324;8.032;2023-02-12T12:31:26;102736.22;;;8.66;100.00
60345;BME280;46188;52.324;8.032;2023-02-12T12:49:56;102710.00;;;9.51;100.00
60345;BME280;46188;52.324;8.032;2023-02-12T13:17:26;102690.09;;;9.38;100.00
60345;BME280;46188;52.324;8.032;2023-02-12T13:25:28;102679.50;;;9.20;100.00
60345;BME280;46188;52.324;8.032;2023-02-12T13:27:58;102674.91;;;9.00;100.00
60345;BME280;46188;52.324;8.032;2023-02-12T13:30:28;102683.91;;;8.87;100.00
60345;BME280;46188;52.324;8.032;2023-02-12T13:35:21;102681.91;;;8.99;100.00
60345;BME280;46188;52.324;8.032;2023-02-12T13:37:51;102678.38;;;8.99;100.00
60345;BME280;46188;52.324;8.032;2023-02-12T13:40:21;102683.72;;;9.00;100.00
60345;BME280;46188;52.324;8.032;2023-02-12T13:45:55;102687.97;;;9.15;100.00
60345;BME280;46188;52.324;8.032;2023-02-12T13:48:54;102687.78;;;9.12;100.00
60345;BME280;46188;52.324;8.032;2023-02-12T13:51:48;102686.25;;;9.15;100.00
60345;BME280;46188;52.324;8.032;2023-02-12T13:56:50;102692.75;;;9.22;100.00
60345;BME280;46188;52.324;8.032;2023-02-12T13:59:40;102687.78;;;9.28;100.00
60345;BME280;46188;52.324;8.032;2023-02-12T14:04:59;102690.84;;;9.19;100.00
60345;BME280;46188;52.324;8.032;2023-02-12T14:07:49;102694.44;;;9.21;100.00
60345;BME280;46188;52.324;8.032;2023-02-12T14:10:25;102689.19;;;9.21;100.00
60345;BME280;46188;52.324;8.032;2023-02-12T14:12:55;102690.75;;;9.18;100.00
60345;BME280;46188;52.324;8.032;2023-02-12T14:15:29;102688.38;;;9.22;100.00
60345;BME280;46188;52.324;8.032;2023-02-12T14:20:33;102685.56;;;9.19;100.00
60345;BME280;46188;52.324;8.032;2023-02-12T14:23:23;102683.91;;;9.21;100.00
60345;BME280;46188;52.324;8.032;2023-02-12T14:26:07;102681.97;;;9.17;100.00
60345;BME280;46188;52.324;8.032;2023-02-12T14:36:45;102677.13;;;9.09;100.00
60345;BME280;46188;52.324;8.032;2023-02-12T14:41:52;102674.34;;;9.05;100.00
60345;BME280;46188;52.324;8.032;2023-02-12T14:46:55;102670.47;;;9.15;100.00
60345;BME280;46188;52.324;8.032;2023-02-12T14:49:26;102673.22;;;9.18;100.00
60345;BME280;46188;52.324;8.032;2023-02-12T14:52:03;102668.88;;;9.19;100.00
60345;BME280;46188;52.324;8.032;2023-02-12T14:55:03;102667.84;;;9.15;100.00
60345;BME280;46188;52.324;8.032;2023-02-12T14:57:37;102665.03;;;9.12;100.00
60345;BME280;46188;52.324;8.032;2023-02-12T15:02:48;102668.66;;;9.14;100.00
60345;BME280;46188;52.324;8.032;2023-02-12T15:05:23;102669.38;;;9.12;100.00
60345;BME280;46188;52.324;8.032;2023-02-12T15:07:59;102669.06;;;9.05;100.00
60345;BME280;46188;52.324;8.032;2023-02-12T15:10:31;102668.31;;;9.08;100.00
60345;BME280;46188;52.324;8.032;2023-02-12T15:13:07;102658.72;;;9.09;100.00
60345;BME280;46188;52.324;8.032;2023-02-12T15:15:56;102662.88;;;9.05;100.00
60345;BME280;46188;52.324;8.032;2023-02-12T15:18:37;102661.03;;;9.02;100.00
60345;BME280;46188;52.324;8.032;2023-02-12T15:21:26;102662.59;;;8.99;100.00
60345;BME280;46188;52.324;8.032;2023-02-12T15:24:09;102659.03;;;8.98;100.00
60345;BME280;46188;52.324;8.032;2023-02-12T15:26:43;102657.31;;;8.99;100.00